Stations météo

Publicité
Chateau d´Oex, Suisse (6627): Température de l'air & dewpoint: 14.09.2018 07:00:00 - 20.09.2018 07:00:00 (CEST)Chateau d´Oex, Suisse (6627): Température de l'air 5cm: 14.09.2018 07:00:00 - 20.09.2018 07:00:00 (CEST)Chateau d´Oex, Suisse (6627): Vitesse du vent & gusts: 14.09.2018 07:00:00 - 20.09.2018 07:00:00 (CEST)Chateau d´Oex, Suisse (6627): Direction du vent: 14.09.2018 07:00:00 - 20.09.2018 07:00:00 (CEST)Chateau d´Oex, Suisse (6627): Ensoleillement: 14.09.2018 07:00:00 - 20.09.2018 07:00:00 (CEST)Chateau d´Oex, Suisse (6627): Quantités de précipitations: 14.09.2018 07:00:00 - 20.09.2018 07:00:00 (CEST)
Date & Time tt [°C] td [°C] tt 5cm [°C] ff [km/h] ff [knt] fx [km/h] fx [knt] dd sd [min] rr [mm]
20.09.2018 07:00:00 - - - - - - - - - -
20.09.2018 06:00:00 10,8 9,4 8,5 1 0 8 4 N 0 0,0
20.09.2018 05:00:00 11,2 9,6 8,1 2 1 7 4 N 0 0,0
20.09.2018 04:00:00 11,0 9,7 8,5 2 1 6 3 NE 0 0,0
20.09.2018 03:00:00 11,8 10,0 9,1 3 2 6 3 NNW 0 0,0
20.09.2018 02:00:00 11,6 10,0 9,5 3 2 8 4 N 0 0,0
20.09.2018 01:00:00 12,2 10,2 9,9 5 3 9 5 N 0 0,0
20.09.2018 00:00:00 12,9 10,4 10,4 5 3 8 5 N 0 0,0
19.09.2018 23:00:00 13,0 10,8 10,9 5 3 9 5 N 0 0,0
19.09.2018 22:00:00 13,9 11,1 11,5 5 3 11 6 N 0 0,0
19.09.2018 21:00:00 14,4 11,5 12,4 5 3 12 7 N 0 0,0
19.09.2018 20:00:00 16,5 12,1 14,3 7 4 13 7 N 0 0,0
19.09.2018 19:00:00 19,7 12,6 16,7 2 1 18 10 NE 17 0,0
19.09.2018 18:00:00 22,3 12,5 23,7 9 5 21 11 SW 60 0,0
19.09.2018 17:00:00 23,4 10,4 25,8 11 6 23 12 W 60 0,0
19.09.2018 16:00:00 23,6 12,4 27,2 10 6 26 14 SW 60 0,0
19.09.2018 15:00:00 24,0 11,6 28,3 13 7 23 13 SSW 60 0,0
19.09.2018 14:00:00 23,5 11,7 27,4 14 8 27 14 SSW 60 0,0
19.09.2018 13:00:00 22,5 11,6 26,9 13 7 - - S 60 0,0
19.09.2018 12:00:00 20,5 10,1 26,5 5 3 - - SSW 60 0,0
19.09.2018 11:00:00 18,5 12,6 24,2 3 2 8 4 SSE 60 -
19.09.2018 10:00:00 15,5 10,6 20,1 4 2 7 4 S 60 -
19.09.2018 09:00:00 12,2 10,1 14,8 1 1 4 2 WSW 51 0,0
19.09.2018 08:00:00 10,0 9,2 7,7 1 1 7 4 NW 0 0,0
19.09.2018 07:00:00 10,0 9,0 7,3 1 1 6 3 N 0 0,0
19.09.2018 06:00:00 10,2 9,4 7,5 2 1 7 4 N 0 0,0
19.09.2018 05:00:00 11,2 9,5 8,1 1 1 6 3 N 0 0,0
19.09.2018 04:00:00 11,4 9,8 8,6 5 3 9 5 N 0 0,0
19.09.2018 03:00:00 11,5 9,8 8,8 4 2 7 4 NNW 0 0,0
19.09.2018 02:00:00 12,1 10,3 9,3 1 0 8 4 SSE 0 0,0
19.09.2018 01:00:00 12,6 10,4 9,9 4 2 9 5 NNW 0 0,0
19.09.2018 00:00:00 13,1 11,1 10,9 4 2 8 5 NNE 0 0,0
18.09.2018 23:00:00 14,0 10,8 10,8 6 3 10 6 N 0 0,0
18.09.2018 22:00:00 14,6 11,6 11,3 4 2 10 6 NNW 0 0,0
18.09.2018 21:00:00 16,5 12,0 13,5 4 2 9 5 N 0 0,0
18.09.2018 20:00:00 15,6 12,5 13,3 7 4 13 7 N 0 0,0
18.09.2018 19:00:00 17,5 13,1 15,3 7 4 11 6 N 27 0,0
18.09.2018 18:00:00 22,3 12,6 24,5 5 3 16 9 SW 55 0,0
18.09.2018 17:00:00 22,1 11,0 21,8 5 3 21 12 NNW 51 0,0
18.09.2018 16:00:00 24,2 10,8 29,0 14 7 23 12 S 60 0,0
18.09.2018 15:00:00 23,9 10,7 29,4 13 7 24 13 SW 60 0,0
18.09.2018 14:00:00 23,9 10,9 29,4 13 7 24 13 SW 60 0,0
18.09.2018 13:00:00 22,5 11,2 28,2 12 6 22 12 SSW 60 0,0
18.09.2018 12:00:00 20,7 13,5 27,9 4 2 11 6 SW 60 0,0
18.09.2018 11:00:00 18,7 13,5 24,0 4 2 6 4 SSE 60 0,0
18.09.2018 10:00:00 15,5 12,5 19,5 3 1 5 3 S 49 0,0
18.09.2018 09:00:00 13,3 11,7 16,1 2 1 5 3 S 57 0,0
18.09.2018 08:00:00 11,4 10,4 8,8 0 0 6 3 N 0 0,0
18.09.2018 07:00:00 10,9 10,3 8,3 1 1 7 4 NNE 0 0,0
18.09.2018 06:00:00 11,6 10,8 9,4 1 1 5 3 E 0 0,0
18.09.2018 05:00:00 12,1 11,2 10,6 1 1 7 4 NW 0 0,0
18.09.2018 04:00:00 11,5 10,9 9,7 3 2 6 4 N 0 0,0
18.09.2018 03:00:00 12,5 11,3 9,7 1 1 7 4 SE 0 0,0
18.09.2018 02:00:00 12,7 11,3 9,9 2 1 8 4 NNE 0 0,0
18.09.2018 01:00:00 12,7 11,6 10,3 2 1 9 5 N 0 0,0
18.09.2018 00:00:00 13,4 11,7 11,0 5 3 8 4 NNW 0 0,0
17.09.2018 23:00:00 14,2 12,0 11,3 3 2 8 5 N 0 0,0
17.09.2018 22:00:00 14,8 12,4 12,0 5 3 10 6 N 0 0,0
17.09.2018 21:00:00 15,3 12,9 13,0 7 4 10 5 N 0 0,0
17.09.2018 20:00:00 17,9 13,2 14,9 7 4 13 7 N 0 0,0
17.09.2018 19:00:00 19,6 13,0 17,4 3 1 18 10 S 28 0,0
17.09.2018 18:00:00 21,9 13,0 24,8 9 5 28 15 WSW 60 0,0
17.09.2018 17:00:00 23,0 12,8 26,4 12 6 30 16 SW 60 0,0
17.09.2018 16:00:00 23,6 13,5 27,7 14 8 30 16 SW 60 0,0
17.09.2018 15:00:00 24,2 13,8 28,4 12 6 24 13 SSW 60 0,0
17.09.2018 14:00:00 22,7 11,5 27,0 15 8 22 12 S 60 0,0
17.09.2018 13:00:00 22,7 11,4 29,2 4 2 14 7 SSW 60 0,0
17.09.2018 12:00:00 19,9 10,8 27,9 3 1 7 4 S 60 0,0
17.09.2018 11:00:00 17,3 12,2 23,7 2 1 6 4 S 60 0,0
17.09.2018 10:00:00 14,5 11,8 19,4 3 2 6 3 E 60 0,0
17.09.2018 09:00:00 11,5 10,0 14,5 2 1 5 3 SSW 57 0,0
17.09.2018 08:00:00 9,5 8,7 7,5 2 1 5 3 NNE 0 0,0
17.09.2018 07:00:00 8,9 8,3 6,8 3 1 5 3 N 0 0,0
17.09.2018 06:00:00 10,0 8,9 7,0 2 1 8 4 E 0 0,0
17.09.2018 05:00:00 9,7 8,9 7,3 4 2 7 4 N 0 0,0
17.09.2018 04:00:00 10,0 9,1 7,5 3 2 7 4 N 0 0,0
17.09.2018 03:00:00 10,4 9,5 8,3 5 3 7 4 N 0 0,0
17.09.2018 02:00:00 10,9 9,8 8,8 4 2 9 5 NNE 0 0,0
17.09.2018 01:00:00 11,5 10,2 8,8 2 1 7 4 NE 0 0,0
17.09.2018 00:00:00 12,4 10,8 10,7 3 1 10 5 N 0 0,0
16.09.2018 23:00:00 14,8 10,1 10,3 6 4 10 5 NNE 0 0,0
16.09.2018 22:00:00 13,6 11,2 11,2 6 3 11 6 N 0 0,0
16.09.2018 21:00:00 14,7 11,9 12,3 6 3 11 6 N 0 0,0
16.09.2018 20:00:00 16,5 12,2 13,9 7 4 11 6 NNE 0 0,0
16.09.2018 19:00:00 17,5 13,1 15,8 2 1 13 7 ENE 0 0,0
16.09.2018 18:00:00 19,5 11,3 19,0 9 5 19 11 S 0 0,0
16.09.2018 17:00:00 19,9 12,5 20,0 9 5 25 13 S 0 0,0
16.09.2018 16:00:00 20,4 12,9 22,3 11 6 27 15 SSW 3 0,0
16.09.2018 15:00:00 20,7 13,3 24,1 11 6 19 10 S 50 0,0
16.09.2018 14:00:00 20,3 13,4 24,9 12 6 20 11 S 60 0,0
16.09.2018 13:00:00 18,5 12,2 24,7 5 3 15 8 S 38 0,0
16.09.2018 12:00:00 17,0 12,4 22,0 3 2 7 4 SSW 50 0,0
16.09.2018 11:00:00 14,4 11,8 17,4 1 1 6 3 SW 36 0,0
16.09.2018 10:00:00 13,8 11,5 19,0 1 1 5 3 SW 59 0,0
16.09.2018 09:00:00 11,0 10,1 13,4 2 1 9 5 SSE 34 0,0
16.09.2018 08:00:00 9,3 9,0 8,5 3 2 8 4 SE 0 0,0
16.09.2018 07:00:00 10,3 9,6 7,4 2 1 8 4 N 0 0,0
16.09.2018 06:00:00 10,6 9,8 7,6 4 2 8 4 NW 0 0,0
16.09.2018 05:00:00 9,9 9,5 7,3 2 1 5 3 N 0 0,0
16.09.2018 04:00:00 10,6 9,9 8,4 4 2 7 4 N 0 0,0
16.09.2018 03:00:00 10,6 10,0 8,1 1 0 5 3 SE 0 0,0
16.09.2018 02:00:00 11,8 10,7 8,9 2 1 8 4 NNE 0 0,0
16.09.2018 01:00:00 11,9 10,7 9,3 3 1 8 5 NNE 0 0,0
16.09.2018 00:00:00 12,2 11,1 10,0 4 2 8 4 N 0 0,0
15.09.2018 23:00:00 12,3 11,2 10,5 5 3 9 5 N 0 0,0
15.09.2018 22:00:00 13,0 11,6 10,8 3 2 11 6 N 0 0,0
15.09.2018 21:00:00 14,4 12,4 12,4 3 2 6 3 N 0 0,0
15.09.2018 20:00:00 15,4 12,2 13,3 4 2 12 6 N 0 0,0
15.09.2018 19:00:00 16,8 11,7 14,4 5 3 23 12 WSW 30 0,0
15.09.2018 18:00:00 18,6 12,5 21,6 10 5 27 14 SSW 60 0,0
15.09.2018 17:00:00 19,6 12,5 23,7 13 7 29 16 SSW 60 0,0
15.09.2018 16:00:00 20,4 12,8 24,7 14 7 26 14 SSW 60 0,0
15.09.2018 15:00:00 19,9 12,7 24,8 17 9 28 15 S 60 0,0
15.09.2018 14:00:00 19,3 12,2 24,7 13 7 20 11 S 60 0,0
15.09.2018 13:00:00 18,2 11,3 24,3 11 6 17 9 SSW 60 0,0
15.09.2018 12:00:00 17,8 12,0 25,3 6 3 14 8 SSW 60 0,0
15.09.2018 11:00:00 16,2 12,0 24,3 5 3 12 6 S 56 0,0
15.09.2018 10:00:00 14,2 12,1 20,5 1 1 5 3 SW 14 0,0
15.09.2018 09:00:00 13,0 12,0 14,1 1 0 3 2 W 0 0,0
15.09.2018 08:00:00 12,1 11,3 12,4 0 0 4 2 SE 0 0,0
15.09.2018 07:00:00 11,4 10,7 10,9 1 1 10 5 E 0 0,0
15.09.2018 06:00:00 11,3 10,6 9,5 4 2 7 4 N 0 0,0
15.09.2018 05:00:00 12,3 11,6 11,9 1 1 3 2 SW 0 0,0
15.09.2018 04:00:00 12,8 11,7 12,4 1 1 6 3 N 0 0,0
15.09.2018 03:00:00 12,8 11,9 12,3 0 0 6 3 SW 0 0,0
15.09.2018 02:00:00 12,5 11,6 10,3 2 1 5 3 NE 0 0,0
15.09.2018 01:00:00 13,4 12,3 12,9 1 1 6 4 N 0 0,0
15.09.2018 00:00:00 13,1 12,1 11,5 3 1 5 3 N 0 0,0
14.09.2018 23:00:00 14,1 12,7 12,9 1 0 6 3 NE 0 0,0
14.09.2018 22:00:00 14,9 12,8 13,7 2 1 8 4 N 0 0,0
14.09.2018 21:00:00 14,5 12,9 12,9 3 2 10 6 E 0 0,0
14.09.2018 20:00:00 15,2 12,5 12,7 7 4 10 5 N 0 0,0
14.09.2018 19:00:00 16,8 12,7 15,3 5 3 15 8 SW 8 0,0
14.09.2018 18:00:00 18,2 13,5 20,9 5 3 18 10 SW 34 0,0
14.09.2018 17:00:00 18,3 13,2 22,5 9 5 18 10 SSW 30 0,0
14.09.2018 16:00:00 18,0 13,5 22,7 9 5 18 10 WSW 25 0,0
14.09.2018 15:00:00 17,1 13,5 22,7 1 1 11 6 WNW 7 0,0
14.09.2018 14:00:00 16,5 13,8 20,0 6 4 12 6 S 0 0,0
14.09.2018 13:00:00 15,8 14,2 17,9 6 3 16 9 S 0 0,0
14.09.2018 12:00:00 15,5 14,2 18,8 5 3 11 6 SSW 4 0,0
14.09.2018 11:00:00 14,7 13,8 17,8 3 2 5 3 SW 0 0,0
14.09.2018 10:00:00 14,1 13,3 15,7 1 0 5 3 SE 0 0,1
14.09.2018 09:00:00 12,9 12,8 14,0 2 1 4 2 WSW 0 0,7
14.09.2018 08:00:00 13,0 12,8 13,2 1 1 7 4 ENE 0 1,1
14.09.2018 07:00:00 12,7 12,6 12,6 1 1 7 4 SE 0 0,0

tt = Température de l'air
td = dewpoint
tt 5cm = Température de l'air 5cm
ff = Vitesse du vent
fx = gusts
dd = Direction du vent
sd = Ensoleillement
rr = Quantités de précipitations

stations d'obs. à proximité